sensor_id;sensor_type;location;lat;lon;timestamp;pressure;altitude;pressure_sealevel;temperature;humidity
69187;BME280;56301;56.864;60.554;2023-02-20T00:00:56;98124.81;;;25.44;35.35
69187;BME280;56301;56.864;60.554;2023-02-20T00:03:19;98113.78;;;25.46;35.06
69187;BME280;56301;56.864;60.554;2023-02-20T00:05:41;98117.31;;;25.40;35.65
69187;BME280;56301;56.864;60.554;2023-02-20T00:08:04;98113.75;;;25.33;34.80
69187;BME280;56301;56.864;60.554;2023-02-20T00:10:26;98109.13;;;25.27;34.91
69187;BME280;56301;56.864;60.554;2023-02-20T00:12:49;98114.13;;;25.16;34.82
69187;BME280;56301;56.864;60.554;2023-02-20T00:15:15;98110.34;;;25.11;34.46
69187;BME280;56301;56.864;60.554;2023-02-20T00:17:37;98111.94;;;25.05;34.16
69187;BME280;56301;56.864;60.554;2023-02-20T00:20:00;98099.00;;;25.01;34.03
69187;BME280;56301;56.864;60.554;2023-02-20T00:22:23;98099.63;;;24.96;33.87
69187;BME280;56301;56.864;60.554;2023-02-20T00:24:46;98104.38;;;24.94;34.54
69187;BME280;56301;56.864;60.554;2023-02-20T00:27:08;98106.03;;;24.88;33.57
69187;BME280;56301;56.864;60.554;2023-02-20T00:29:31;98109.34;;;24.84;33.35
69187;BME280;56301;56.864;60.554;2023-02-20T00:31:54;98104.53;;;24.79;33.47
69187;BME280;56301;56.864;60.554;2023-02-20T00:34:17;98102.66;;;24.80;33.57
69187;BME280;56301;56.864;60.554;2023-02-20T00:36:40;98104.34;;;24.81;34.12
69187;BME280;56301;56.864;60.554;2023-02-20T00:39:02;98111.41;;;24.82;31.33
69187;BME280;56301;56.864;60.554;2023-02-20T00:41:25;98108.72;;;24.82;30.54
69187;BME280;56301;56.864;60.554;2023-02-20T00:43:47;98102.47;;;24.81;30.02
69187;BME280;56301;56.864;60.554;2023-02-20T00:46:10;98100.38;;;24.77;29.94
69187;BME280;56301;56.864;60.554;2023-02-20T00:48:33;98099.06;;;24.72;30.91
69187;BME280;56301;56.864;60.554;2023-02-20T00:51:13;98094.69;;;24.71;30.98
69187;BME280;56301;56.864;60.554;2023-02-20T00:53:36;98088.84;;;24.68;30.38
69187;BME280;56301;56.864;60.554;2023-02-20T00:55:58;98099.88;;;24.66;31.67
69187;BME280;56301;56.864;60.554;2023-02-20T00:58:21;98094.47;;;24.66;31.34
69187;BME280;56301;56.864;60.554;2023-02-20T01:00:45;98090.09;;;24.65;30.99
69187;BME280;56301;56.864;60.554;2023-02-20T01:03:08;98089.47;;;24.63;31.67
69187;BME280;56301;56.864;60.554;2023-02-20T01:05:30;98081.53;;;24.62;31.29
69187;BME280;56301;56.864;60.554;2023-02-20T01:07:54;98086.94;;;24.62;31.19
69187;BME280;56301;56.864;60.554;2023-02-20T01:10:16;98085.50;;;24.59;30.61
69187;BME280;56301;56.864;60.554;2023-02-20T01:12:39;98087.16;;;24.60;29.75
69187;BME280;56301;56.864;60.554;2023-02-20T01:15:01;98082.41;;;24.62;29.63
69187;BME280;56301;56.864;60.554;2023-02-20T01:17:24;98083.41;;;24.61;29.67
69187;BME280;56301;56.864;60.554;2023-02-20T01:19:46;98082.19;;;24.64;31.03
69187;BME280;56301;56.864;60.554;2023-02-20T01:22:09;98082.97;;;24.58;30.52
69187;BME280;56301;56.864;60.554;2023-02-20T01:24:31;98073.78;;;24.52;30.44
69187;BME280;56301;56.864;60.554;2023-02-20T01:26:54;98067.13;;;24.48;30.40
69187;BME280;56301;56.864;60.554;2023-02-20T01:29:16;98067.56;;;24.52;32.76
69187;BME280;56301;56.864;60.554;2023-02-20T01:31:39;98064.50;;;24.68;33.34
69187;BME280;56301;56.864;60.554;2023-02-20T01:34:04;98071.88;;;24.87;32.69
69187;BME280;56301;56.864;60.554;2023-02-20T01:36:28;98067.78;;;25.05;32.82
69187;BME280;56301;56.864;60.554;2023-02-20T01:38:50;98065.56;;;25.15;32.98
69187;BME280;56301;56.864;60.554;2023-02-20T01:41:13;98066.22;;;25.24;32.39
69187;BME280;56301;56.864;60.554;2023-02-20T01:43:36;98072.31;;;25.39;32.46
69187;BME280;56301;56.864;60.554;2023-02-20T01:48:41;98064.69;;;25.89;31.51
69187;BME280;56301;56.864;60.554;2023-02-20T01:51:03;98058.03;;;25.98;31.53
69187;BME280;56301;56.864;60.554;2023-02-20T01:53:27;98057.81;;;26.00;31.82
69187;BME280;56301;56.864;60.554;2023-02-20T01:55:52;98061.78;;;25.97;31.38
69187;BME280;56301;56.864;60.554;2023-02-20T02:00:39;98072.56;;;25.77;31.72
69187;BME280;56301;56.864;60.554;2023-02-20T02:03:12;98086.31;;;25.69;31.89
69187;BME280;56301;56.864;60.554;2023-02-20T02:05:35;98089.44;;;25.59;31.85
69187;BME280;56301;56.864;60.554;2023-02-20T02:07:59;98091.91;;;25.48;32.21
69187;BME280;56301;56.864;60.554;2023-02-20T02:10:27;98083.34;;;25.44;31.33
69187;BME280;56301;56.864;60.554;2023-02-20T02:12:52;98084.00;;;25.46;31.67
69187;BME280;56301;56.864;60.554;2023-02-20T02:15:17;98085.66;;;25.47;31.88
69187;BME280;56301;56.864;60.554;2023-02-20T02:22:34;98088.00;;;25.02;30.81
69187;BME280;56301;56.864;60.554;2023-02-20T02:25:09;98080.84;;;24.94;31.94
69187;BME280;56301;56.864;60.554;2023-02-20T02:27:45;98078.59;;;24.91;31.35
69187;BME280;56301;56.864;60.554;2023-02-20T02:35:53;98086.41;;;24.80;28.47
69187;BME280;56301;56.864;60.554;2023-02-20T02:38:18;98079.72;;;24.76;28.80
69187;BME280;56301;56.864;60.554;2023-02-20T02:40:50;98076.59;;;24.72;28.56
69187;BME280;56301;56.864;60.554;2023-02-20T02:48:10;98074.47;;;24.61;31.09
69187;BME280;56301;56.864;60.554;2023-02-20T02:50:36;98074.22;;;24.56;31.41
69187;BME280;56301;56.864;60.554;2023-02-20T02:52:59;98081.69;;;24.54;31.66
69187;BME280;56301;56.864;60.554;2023-02-20T02:55:25;98088.38;;;24.51;31.71
69187;BME280;56301;56.864;60.554;2023-02-20T02:57:49;98084.19;;;24.48;31.43
69187;BME280;56301;56.864;60.554;2023-02-20T03:03:09;98095.38;;;24.45;31.33
69187;BME280;56301;56.864;60.554;2023-02-20T03:05:25;98082.91;;;24.44;31.05
69187;BME280;56301;56.864;60.554;2023-02-20T03:07:52;98085.41;;;24.46;29.54
69187;BME280;56301;56.864;60.554;2023-02-20T03:10:17;98088.75;;;24.48;30.21
69187;BME280;56301;56.864;60.554;2023-02-20T03:12:41;98081.66;;;24.47;29.88
69187;BME280;56301;56.864;60.554;2023-02-20T03:15:07;98085.06;;;24.56;30.22
69187;BME280;56301;56.864;60.554;2023-02-20T03:17:35;98083.88;;;24.71;32.03
69187;BME280;56301;56.864;60.554;2023-02-20T03:20:00;98084.19;;;24.90;32.29
69187;BME280;56301;56.864;60.554;2023-02-20T03:22:30;98084.69;;;25.07;31.41
69187;BME280;56301;56.864;60.554;2023-02-20T03:24:55;98080.41;;;25.26;31.38
69187;BME280;56301;56.864;60.554;2023-02-20T03:27:35;98076.25;;;25.36;31.16
69187;BME280;56301;56.864;60.554;2023-02-20T03:29:59;98070.88;;;25.43;30.95
69187;BME280;56301;56.864;60.554;2023-02-20T03:32:22;98079.19;;;25.48;31.30
69187;BME280;56301;56.864;60.554;2023-02-20T03:34:47;98073.59;;;25.50;31.20
69187;BME280;56301;56.864;60.554;2023-02-20T03:37:14;98077.53;;;25.47;31.91
69187;BME280;56301;56.864;60.554;2023-02-20T03:39:40;98076.72;;;25.53;32.96
69187;BME280;56301;56.864;60.554;2023-02-20T03:42:06;98071.28;;;25.40;32.21
69187;BME280;56301;56.864;60.554;2023-02-20T03:44:37;98075.88;;;24.98;31.79
69187;BME280;56301;56.864;60.554;2023-02-20T03:47:00;98079.41;;;24.92;32.70
69187;BME280;56301;56.864;60.554;2023-02-20T03:49:25;98076.19;;;24.75;32.89
69187;BME280;56301;56.864;60.554;2023-02-20T03:51:51;98079.78;;;24.82;32.72
69187;BME280;56301;56.864;60.554;2023-02-20T03:54:26;98082.41;;;24.69;32.18
69187;BME280;56301;56.864;60.554;2023-02-20T03:56:49;98081.09;;;24.58;31.57
69187;BME280;56301;56.864;60.554;2023-02-20T03:59:14;98076.72;;;24.57;31.62
69187;BME280;56301;56.864;60.554;2023-02-20T04:01:40;98081.69;;;24.54;31.52
69187;BME280;56301;56.864;60.554;2023-02-20T04:04:03;98074.41;;;24.47;31.54
69187;BME280;56301;56.864;60.554;2023-02-20T04:06:27;98071.25;;;24.44;31.78
69187;BME280;56301;56.864;60.554;2023-02-20T04:08:57;98076.22;;;24.40;31.22
69187;BME280;56301;56.864;60.554;2023-02-20T04:11:27;98078.25;;;24.38;31.42
69187;BME280;56301;56.864;60.554;2023-02-20T04:13:52;98084.25;;;24.34;31.53
69187;BME280;56301;56.864;60.554;2023-02-20T04:16:16;98080.72;;;24.33;31.48
69187;BME280;56301;56.864;60.554;2023-02-20T04:18:39;98080.28;;;24.30;31.70
69187;BME280;56301;56.864;60.554;2023-02-20T04:21:03;98080.28;;;24.30;31.59
69187;BME280;56301;56.864;60.554;2023-02-20T04:23:34;98071.53;;;24.27;31.56
69187;BME280;56301;56.864;60.554;2023-02-20T04:26:00;98070.88;;;24.25;31.61
69187;BME280;56301;56.864;60.554;2023-02-20T04:28:26;98071.91;;;24.24;31.98
69187;BME280;56301;56.864;60.554;2023-02-20T04:30:56;98074.00;;;24.22;31.72
69187;BME280;56301;56.864;60.554;2023-02-20T04:33:20;98067.94;;;24.20;31.85
69187;BME280;56301;56.864;60.554;2023-02-20T04:35:43;98064.41;;;24.20;31.52
69187;BME280;56301;56.864;60.554;2023-02-20T04:38:06;98053.81;;;24.18;32.12
69187;BME280;56301;56.864;60.554;2023-02-20T04:40:29;98065.63;;;24.17;31.52
69187;BME280;56301;56.864;60.554;2023-02-20T04:42:52;98053.16;;;24.16;31.81
69187;BME280;56301;56.864;60.554;2023-02-20T04:45:14;98048.78;;;24.15;31.25
69187;BME280;56301;56.864;60.554;2023-02-20T04:47:37;98046.09;;;24.15;31.58
69187;BME280;56301;56.864;60.554;2023-02-20T04:50:01;98038.97;;;24.14;31.34
69187;BME280;56301;56.864;60.554;2023-02-20T04:52:23;98026.31;;;24.15;31.19
69187;BME280;56301;56.864;60.554;2023-02-20T04:54:46;98038.97;;;24.14;31.20
69187;BME280;56301;56.864;60.554;2023-02-20T04:57:10;98032.75;;;24.14;31.03
69187;BME280;56301;56.864;60.554;2023-02-20T04:59:33;98029.22;;;24.13;30.19
69187;BME280;56301;56.864;60.554;2023-02-20T05:01:55;98036.50;;;24.13;29.69
69187;BME280;56301;56.864;60.554;2023-02-20T05:04:18;98043.56;;;24.14;29.80
69187;BME280;56301;56.864;60.554;2023-02-20T05:06:45;98038.16;;;24.14;29.46
69187;BME280;56301;56.864;60.554;2023-02-20T05:09:08;98037.31;;;24.13;29.49
69187;BME280;56301;56.864;60.554;2023-02-20T05:11:30;98048.13;;;24.13;29.42
69187;BME280;56301;56.864;60.554;2023-02-20T05:13:53;98042.72;;;24.13;29.72
69187;BME280;56301;56.864;60.554;2023-02-20T05:16:16;98044.59;;;24.13;29.85
69187;BME280;56301;56.864;60.554;2023-02-20T05:18:38;98050.84;;;24.13;29.87
69187;BME280;56301;56.864;60.554;2023-02-20T05:21:01;98044.44;;;24.21;30.98
69187;BME280;56301;56.864;60.554;2023-02-20T05:23:24;98029.78;;;24.37;31.97
69187;BME280;56301;56.864;60.554;2023-02-20T05:25:46;98038.03;;;24.57;31.33
69187;BME280;56301;56.864;60.554;2023-02-20T05:28:09;98032.47;;;24.71;31.31
69187;BME280;56301;56.864;60.554;2023-02-20T05:30:31;98034.59;;;24.83;31.08
69187;BME280;56301;56.864;60.554;2023-02-20T05:32:53;98029.66;;;24.93;31.67
69187;BME280;56301;56.864;60.554;2023-02-20T05:35:16;98032.56;;;24.98;31.41
69187;BME280;56301;56.864;60.554;2023-02-20T05:37:38;98032.41;;;25.06;31.63
69187;BME280;56301;56.864;60.554;2023-02-20T05:40:01;98039.72;;;25.12;31.71
69187;BME280;56301;56.864;60.554;2023-02-20T05:42:23;98039.16;;;25.17;30.84
69187;BME280;56301;56.864;60.554;2023-02-20T05:44:46;98037.06;;;25.19;30.85
69187;BME280;56301;56.864;60.554;2023-02-20T05:47:08;98041.22;;;25.21;30.32
69187;BME280;56301;56.864;60.554;2023-02-20T05:49:31;98036.22;;;25.18;30.40
69187;BME280;56301;56.864;60.554;2023-02-20T05:51:57;98038.72;;;25.13;30.34
69187;BME280;56301;56.864;60.554;2023-02-20T05:54:19;98041.16;;;25.08;30.58
69187;BME280;56301;56.864;60.554;2023-02-20T05:56:42;98034.69;;;25.03;31.20
69187;BME280;56301;56.864;60.554;2023-02-20T05:59:05;98029.69;;;25.00;31.08
69187;BME280;56301;56.864;60.554;2023-02-20T06:01:29;98027.38;;;24.96;31.02
69187;BME280;56301;56.864;60.554;2023-02-20T06:03:51;98020.72;;;24.92;31.13
69187;BME280;56301;56.864;60.554;2023-02-20T06:06:14;98018.63;;;24.88;31.42
69187;BME280;56301;56.864;60.554;2023-02-20T06:08:38;98011.50;;;24.87;31.43
69187;BME280;56301;56.864;60.554;2023-02-20T06:11:00;98017.34;;;24.84;31.33
69187;BME280;56301;56.864;60.554;2023-02-20T06:13:23;98014.00;;;24.82;31.11
69187;BME280;56301;56.864;60.554;2023-02-20T06:15:45;98019.81;;;24.79;30.95
69187;BME280;56301;56.864;60.554;2023-02-20T06:18:07;98004.63;;;24.78;30.81
69187;BME280;56301;56.864;60.554;2023-02-20T06:20:30;98001.28;;;24.76;30.87
69187;BME280;56301;56.864;60.554;2023-02-20T06:22:52;98006.69;;;24.76;31.13
69187;BME280;56301;56.864;60.554;2023-02-20T06:25:15;97995.25;;;24.73;30.88
69187;BME280;56301;56.864;60.554;2023-02-20T06:27:38;97992.72;;;24.72;30.63
69187;BME280;56301;56.864;60.554;2023-02-20T06:30:00;97992.75;;;24.79;30.82
69187;BME280;56301;56.864;60.554;2023-02-20T06:32:23;97997.16;;;24.86;30.87
69187;BME280;56301;56.864;60.554;2023-02-20T06:34:45;97990.31;;;24.97;30.52
69187;BME280;56301;56.864;60.554;2023-02-20T06:37:07;97993.88;;;25.04;30.06
69187;BME280;56301;56.864;60.554;2023-02-20T06:39:30;97982.28;;;25.10;30.69
69187;BME280;56301;56.864;60.554;2023-02-20T06:41:53;97978.31;;;25.19;30.36
69187;BME280;56301;56.864;60.554;2023-02-20T06:44:16;97965.44;;;25.21;30.50
69187;BME280;56301;56.864;60.554;2023-02-20T06:46:38;97978.75;;;25.30;30.28
69187;BME280;56301;56.864;60.554;2023-02-20T06:49:01;97977.72;;;25.31;30.56
69187;BME280;56301;56.864;60.554;2023-02-20T06:51:28;97975.66;;;25.33;30.70
69187;BME280;56301;56.864;60.554;2023-02-20T06:53:52;97978.34;;;25.26;30.03
69187;BME280;56301;56.864;60.554;2023-02-20T06:56:16;97978.97;;;25.28;30.58
69187;BME280;56301;56.864;60.554;2023-02-20T06:58:39;97975.84;;;25.25;30.48
69187;BME280;56301;56.864;60.554;2023-02-20T07:01:01;97969.38;;;25.26;30.69
69187;BME280;56301;56.864;60.554;2023-02-20T07:03:24;97971.69;;;25.29;30.29
69187;BME280;56301;56.864;60.554;2023-02-20T07:05:47;97975.41;;;25.34;30.40
69187;BME280;56301;56.864;60.554;2023-02-20T07:08:09;97966.28;;;25.42;30.12
69187;BME280;56301;56.864;60.554;2023-02-20T07:10:32;97960.88;;;25.42;30.49
69187;BME280;56301;56.864;60.554;2023-02-20T07:12:54;97962.72;;;25.48;29.99
69187;BME280;56301;56.864;60.554;2023-02-20T07:15:17;97967.94;;;25.56;30.51
69187;BME280;56301;56.864;60.554;2023-02-20T07:17:39;97973.56;;;25.61;29.58
69187;BME280;56301;56.864;60.554;2023-02-20T07:20:02;97958.78;;;25.64;29.97
69187;BME280;56301;56.864;60.554;2023-02-20T07:22:25;97962.75;;;25.68;29.66
69187;BME280;56301;56.864;60.554;2023-02-20T07:24:50;97959.41;;;25.73;28.86
69187;BME280;56301;56.864;60.554;2023-02-20T07:27:13;97963.34;;;25.77;28.95
69187;BME280;56301;56.864;60.554;2023-02-20T07:29:36;97950.47;;;25.79;28.52
69187;BME280;56301;56.864;60.554;2023-02-20T07:31:58;97962.56;;;25.83;28.49
69187;BME280;56301;56.864;60.554;2023-02-20T07:34:21;97943.34;;;25.84;28.39
69187;BME280;56301;56.864;60.554;2023-02-20T07:36:44;97950.25;;;25.87;28.23
69187;BME280;56301;56.864;60.554;2023-02-20T07:39:06;97956.06;;;25.90;27.64
69187;BME280;56301;56.864;60.554;2023-02-20T07:41:29;97956.91;;;25.91;27.80
69187;BME280;56301;56.864;60.554;2023-02-20T07:43:52;97950.00;;;25.95;27.72
69187;BME280;56301;56.864;60.554;2023-02-20T07:46:14;97952.31;;;25.98;27.94
69187;BME280;56301;56.864;60.554;2023-02-20T07:48:37;97952.31;;;25.98;27.57
69187;BME280;56301;56.864;60.554;2023-02-20T07:50:59;97947.94;;;26.04;27.88
69187;BME280;56301;56.864;60.554;2023-02-20T07:53:22;97941.22;;;26.06;27.48
69187;BME280;56301;56.864;60.554;2023-02-20T07:55:45;97947.06;;;26.10;27.64
69187;BME280;56301;56.864;60.554;2023-02-20T07:58:07;97940.38;;;26.12;28.00
69187;BME280;56301;56.864;60.554;2023-02-20T08:00:30;97952.06;;;26.13;27.07
69187;BME280;56301;56.864;60.554;2023-02-20T08:02:52;97948.69;;;26.17;27.49
69187;BME280;56301;56.864;60.554;2023-02-20T08:05:15;97940.16;;;26.21;27.52
69187;BME280;56301;56.864;60.554;2023-02-20T08:07:38;97933.25;;;26.25;27.66
69187;BME280;56301;56.864;60.554;2023-02-20T08:10:00;97943.66;;;26.28;27.26
69187;BME280;56301;56.864;60.554;2023-02-20T08:12:23;97939.91;;;26.29;27.29
69187;BME280;56301;56.864;60.554;2023-02-20T08:14:48;97937.81;;;26.31;27.33
69187;BME280;56301;56.864;60.554;2023-02-20T08:17:10;97936.16;;;26.30;27.32
69187;BME280;56301;56.864;60.554;2023-02-20T08:19:33;97934.47;;;26.29;27.48
69187;BME280;56301;56.864;60.554;2023-02-20T08:21:56;97930.53;;;26.25;27.82
69187;BME280;56301;56.864;60.554;2023-02-20T08:24:18;97934.94;;;26.26;27.52
69187;BME280;56301;56.864;60.554;2023-02-20T08:26:44;97933.66;;;26.28;27.84
69187;BME280;56301;56.864;60.554;2023-02-20T08:29:06;97932.41;;;26.31;27.94
69187;BME280;56301;56.864;60.554;2023-02-20T08:31:29;97922.78;;;26.35;28.06
69187;BME280;56301;56.864;60.554;2023-02-20T08:33:51;97918.59;;;26.39;28.11
69187;BME280;56301;56.864;60.554;2023-02-20T08:36:14;97915.69;;;26.40;27.73
69187;BME280;56301;56.864;60.554;2023-02-20T08:38:37;97905.22;;;26.44;27.77
69187;BME280;56301;56.864;60.554;2023-02-20T08:41:04;97897.06;;;26.51;27.76
69187;BME280;56301;56.864;60.554;2023-02-20T08:43:27;97898.97;;;26.50;27.19
69187;BME280;56301;56.864;60.554;2023-02-20T08:45:49;97898.09;;;26.56;28.35
69187;BME280;56301;56.864;60.554;2023-02-20T08:48:12;97901.84;;;26.62;27.45
69187;BME280;56301;56.864;60.554;2023-02-20T08:50:34;97893.47;;;26.63;27.95
69187;BME280;56301;56.864;60.554;2023-02-20T08:52:57;97891.97;;;26.68;28.52
69187;BME280;56301;56.864;60.554;2023-02-20T08:55:19;97883.84;;;26.68;27.61
69187;BME280;56301;56.864;60.554;2023-02-20T08:57:42;97887.19;;;26.70;28.76
69187;BME280;56301;56.864;60.554;2023-02-20T09:00:04;97879.03;;;26.70;28.86
69187;BME280;56301;56.864;60.554;2023-02-20T09:02:27;97872.56;;;26.71;28.58
69187;BME280;56301;56.864;60.554;2023-02-20T09:04:50;97877.97;;;26.71;28.51
69187;BME280;56301;56.864;60.554;2023-02-20T09:07:12;97875.03;;;26.72;28.74
69187;BME280;56301;56.864;60.554;2023-02-20T09:09:35;97869.44;;;26.67;28.73
69187;BME280;56301;56.864;60.554;2023-02-20T09:11:57;97872.22;;;26.54;27.49
69187;BME280;56301;56.864;60.554;2023-02-20T09:14:20;97869.78;;;26.39;27.11
69187;BME280;56301;56.864;60.554;2023-02-20T09:16:43;97874.59;;;26.37;27.19
69187;BME280;56301;56.864;60.554;2023-02-20T09:19:05;97864.56;;;26.37;27.09
69187;BME280;56301;56.864;60.554;2023-02-20T09:21:28;97870.66;;;26.33;27.37
69187;BME280;56301;56.864;60.554;2023-02-20T09:23:50;97861.88;;;26.31;27.70
69187;BME280;56301;56.864;60.554;2023-02-20T09:26:13;97872.16;;;26.22;28.40
69187;BME280;56301;56.864;60.554;2023-02-20T09:28:35;97866.34;;;26.12;27.98
69187;BME280;56301;56.864;60.554;2023-02-20T09:30:58;97860.53;;;26.08;28.20
69187;BME280;56301;56.864;60.554;2023-02-20T09:33:20;97856.16;;;26.07;28.32
69187;BME280;56301;56.864;60.554;2023-02-20T09:35:42;97847.63;;;26.04;28.55
69187;BME280;56301;56.864;60.554;2023-02-20T09:38:05;97852.00;;;25.98;30.01
69187;BME280;56301;56.864;60.554;2023-02-20T09:40:28;97847.84;;;25.96;28.30
69187;BME280;56301;56.864;60.554;2023-02-20T09:45:15;97847.06;;;25.82;28.55
69187;BME280;56301;56.864;60.554;2023-02-20T09:47:52;97844.78;;;25.79;28.51
69187;BME280;56301;56.864;60.554;2023-02-20T09:50:21;97851.19;;;25.78;28.80
69187;BME280;56301;56.864;60.554;2023-02-20T09:52:45;97839.75;;;25.76;28.48
69187;BME280;56301;56.864;60.554;2023-02-20T09:55:16;97835.41;;;25.75;28.63
69187;BME280;56301;56.864;60.554;2023-02-20T09:57:40;97845.19;;;25.76;28.62
69187;BME280;56301;56.864;60.554;2023-02-20T10:02:30;97835.41;;;25.68;29.25
69187;BME280;56301;56.864;60.554;2023-02-20T10:04:57;97830.59;;;25.63;29.66
69187;BME280;56301;56.864;60.554;2023-02-20T10:07:31;97817.69;;;25.59;28.52
69187;BME280;56301;56.864;60.554;2023-02-20T10:09:54;97822.06;;;25.60;29.34
69187;BME280;56301;56.864;60.554;2023-02-20T10:19:59;97803.75;;;25.55;28.95
69187;BME280;56301;56.864;60.554;2023-02-20T10:22:31;97804.16;;;25.52;29.24
69187;BME280;56301;56.864;60.554;2023-02-20T10:29:58;97800.03;;;25.50;29.61
69187;BME280;56301;56.864;60.554;2023-02-20T10:32:23;97799.81;;;25.44;29.36
69187;BME280;56301;56.864;60.554;2023-02-20T10:34:54;97797.75;;;25.40;29.61
69187;BME280;56301;56.864;60.554;2023-02-20T10:37:19;97797.97;;;25.38;29.78
69187;BME280;56301;56.864;60.554;2023-02-20T10:40:26;97792.16;;;25.35;29.99
69187;BME280;56301;56.864;60.554;2023-02-20T10:44:58;97790.28;;;25.29;29.60
69187;BME280;56301;56.864;60.554;2023-02-20T10:47:24;97785.28;;;25.26;29.90
69187;BME280;56301;56.864;60.554;2023-02-20T10:50:06;97782.16;;;25.22;29.10
69187;BME280;56301;56.864;60.554;2023-02-20T10:52:31;97782.56;;;25.19;29.43
69187;BME280;56301;56.864;60.554;2023-02-20T10:57:24;97778.84;;;25.13;29.35
69187;BME280;56301;56.864;60.554;2023-02-20T11:02:32;97775.91;;;25.08;29.49
69187;BME280;56301;56.864;60.554;2023-02-20T11:05:39;97771.75;;;25.06;29.40
69187;BME280;56301;56.864;60.554;2023-02-20T11:07:41;97763.22;;;25.02;29.82
69187;BME280;56301;56.864;60.554;2023-02-20T11:10:04;97767.78;;;25.02;29.71
69187;BME280;56301;56.864;60.554;2023-02-20T11:14:52;97758.22;;;24.99;29.77
69187;BME280;56301;56.864;60.554;2023-02-20T11:17:17;97756.75;;;24.96;29.74
69187;BME280;56301;56.864;60.554;2023-02-20T11:19:41;97758.81;;;24.94;29.90
69187;BME280;56301;56.864;60.554;2023-02-20T11:22:04;97757.81;;;24.95;29.51
69187;BME280;56301;56.864;60.554;2023-02-20T11:24:31;97751.97;;;24.92;29.31
69187;BME280;56301;56.864;60.554;2023-02-20T11:26:55;97751.34;;;24.90;29.72
69187;BME280;56301;56.864;60.554;2023-02-20T11:29:18;97754.28;;;24.88;29.87
69187;BME280;56301;56.864;60.554;2023-02-20T11:31:43;97748.03;;;24.88;30.01
69187;BME280;56301;56.864;60.554;2023-02-20T11:34:09;97750.09;;;24.86;29.53
69187;BME280;56301;56.864;60.554;2023-02-20T11:36:38;97744.69;;;24.86;30.07
69187;BME280;56301;56.864;60.554;2023-02-20T11:39:11;97739.69;;;24.83;29.59
69187;BME280;56301;56.864;60.554;2023-02-20T11:41:35;97735.34;;;24.82;30.00
69187;BME280;56301;56.864;60.554;2023-02-20T11:46:32;97724.94;;;24.79;30.17
69187;BME280;56301;56.864;60.554;2023-02-20T11:48:59;97721.63;;;24.77;30.10
69187;BME280;56301;56.864;60.554;2023-02-20T11:51:32;97722.63;;;24.76;30.03
69187;BME280;56301;56.864;60.554;2023-02-20T11:56:36;97723.03;;;24.72;30.11
69187;BME280;56301;56.864;60.554;2023-02-20T12:01:39;97719.09;;;24.68;30.54
69187;BME280;56301;56.864;60.554;2023-02-20T12:04:12;97717.66;;;24.66;30.25
69187;BME280;56301;56.864;60.554;2023-02-20T12:06:42;97712.44;;;24.64;30.27
69187;BME280;56301;56.864;60.554;2023-02-20T12:09:05;97706.22;;;24.64;29.96
69187;BME280;56301;56.864;60.554;2023-02-20T12:11:28;97693.09;;;24.61;29.98
69187;BME280;56301;56.864;60.554;2023-02-20T12:13:51;97701.44;;;24.59;30.06
69187;BME280;56301;56.864;60.554;2023-02-20T12:18:41;97699.16;;;24.56;29.93
69187;BME280;56301;56.864;60.554;2023-02-20T12:21:12;97694.78;;;24.55;30.19
69187;BME280;56301;56.864;60.554;2023-02-20T12:23:49;97699.78;;;24.52;30.01
69187;BME280;56301;56.864;60.554;2023-02-20T12:31:45;97698.72;;;24.46;29.72
69187;BME280;56301;56.864;60.554;2023-02-20T12:34:15;97693.94;;;24.48;30.10
69187;BME280;56301;56.864;60.554;2023-02-20T12:39:10;97692.06;;;24.42;29.91
69187;BME280;56301;56.864;60.554;2023-02-20T12:41:49;97698.53;;;24.41;30.02
69187;BME280;56301;56.864;60.554;2023-02-20T12:46:47;97699.09;;;24.36;30.09
69187;BME280;56301;56.864;60.554;2023-02-20T12:52:35;97688.91;;;24.32;30.10
69187;BME280;56301;56.864;60.554;2023-02-20T13:02:05;97688.72;;;24.26;30.00
69187;BME280;56301;56.864;60.554;2023-02-20T13:04:39;97684.31;;;24.25;30.90
69187;BME280;56301;56.864;60.554;2023-02-20T13:07:13;97683.09;;;24.35;30.34
69187;BME280;56301;56.864;60.554;2023-02-20T13:09:39;97677.09;;;24.46;30.99
69187;BME280;56301;56.864;60.554;2023-02-20T13:12:14;97677.50;;;24.56;31.13
69187;BME280;56301;56.864;60.554;2023-02-20T13:14:45;97682.28;;;24.67;31.37
69187;BME280;56301;56.864;60.554;2023-02-20T13:20:12;97677.88;;;24.80;30.86
69187;BME280;56301;56.864;60.554;2023-02-20T13:22:31;97670.19;;;24.83;31.10
69187;BME280;56301;56.864;60.554;2023-02-20T13:24:53;97671.22;;;24.89;31.03
69187;BME280;56301;56.864;60.554;2023-02-20T13:27:29;97667.47;;;24.90;31.27
69187;BME280;56301;56.864;60.554;2023-02-20T13:29:57;97668.09;;;24.92;31.35
69187;BME280;56301;56.864;60.554;2023-02-20T13:32:21;97668.09;;;24.92;30.98
69187;BME280;56301;56.864;60.554;2023-02-20T13:34:45;97671.00;;;24.90;30.99
69187;BME280;56301;56.864;60.554;2023-02-20T13:43:33;97676.22;;;24.79;31.39
69187;BME280;56301;56.864;60.554;2023-02-20T13:45:38;97683.53;;;24.71;30.94
69187;BME280;56301;56.864;60.554;2023-02-20T13:48:17;97684.97;;;24.67;31.30
69187;BME280;56301;56.864;60.554;2023-02-20T13:50:39;97685.63;;;24.63;30.76
69187;BME280;56301;56.864;60.554;2023-02-20T13:53:02;97676.47;;;24.57;30.47
69187;BME280;56301;56.864;60.554;2023-02-20T13:55:25;97676.88;;;24.54;30.49
69187;BME280;56301;56.864;60.554;2023-02-20T13:57:49;97677.50;;;24.49;30.30
69187;BME280;56301;56.864;60.554;2023-02-20T14:02:39;97673.13;;;24.42;30.45
69187;BME280;56301;56.864;60.554;2023-02-20T14:05:03;97671.47;;;24.41;30.77
69187;BME280;56301;56.864;60.554;2023-02-20T14:07:30;97671.03;;;24.37;30.73
69187;BME280;56301;56.864;60.554;2023-02-20T14:10:00;97673.94;;;24.36;30.40